Map

Track Data

SID SEASON NUMBER BASIN SUBBASIN NAME ISO_TIME NATURE LAT LON WMO_WIND WMO_PRES WMO_AGENCY TRACK_TYPE DIST2LAND LANDFALL IFLAG USA_AGENCY USA_ATCF_ID USA_LAT USA_LON USA_RECORD USA_STATUS USA_WIND USA_PRES USA_SSHS USA_R34_NE USA_R34_SE USA_R34_SW USA_R34_NW USA_R50_NE USA_R50_SE USA_R50_SW USA_R50_NW USA_R64_NE USA_R64_SE USA_R64_SW USA_R64_NW USA_POCI USA_ROCI USA_RMW USA_EYE TOKYO_LAT TOKYO_LON TOKYO_GRADE TOKYO_WIND TOKYO_PRES TOKYO_R50_DIR TOKYO_R50_LONG TOKYO_R50_SHORT TOKYO_R30_DIR TOKYO_R30_LONG TOKYO_R30_SHORT TOKYO_LAND CMA_LAT CMA_LON CMA_CAT CMA_WIND CMA_PRES HKO_LAT HKO_LON HKO_CAT HKO_WIND HKO_PRES NEWDELHI_LAT NEWDELHI_LON NEWDELHI_GRADE NEWDELHI_WIND NEWDELHI_PRES NEWDELHI_CI NEWDELHI_DP NEWDELHI_POCI REUNION_LAT REUNION_LON REUNION_TYPE REUNION_WIND REUNION_PRES REUNION_TNUM REUNION_CI REUNION_RMW REUNION_R34_NE REUNION_R34_SE REUNION_R34_SW REUNION_R34_NW REUNION_R50_NE REUNION_R50_SE REUNION_R50_SW REUNION_R50_NW REUNION_R64_NE REUNION_R64_SE REUNION_R64_SW REUNION_R64_NW BOM_LAT BOM_LON BOM_TYPE BOM_WIND BOM_PRES BOM_TNUM BOM_CI BOM_RMW BOM_R34_NE BOM_R34_SE BOM_R34_SW BOM_R34_NW BOM_R50_NE BOM_R50_SE BOM_R50_SW BOM_R50_NW BOM_R64_NE BOM_R64_SE BOM_R64_SW BOM_R64_NW BOM_ROCI BOM_POCI BOM_EYE BOM_POS_METHOD BOM_PRES_METHOD NADI_LAT NADI_LON NADI_CAT NADI_WIND NADI_PRES WELLINGTON_LAT WELLINGTON_LON WELLINGTON_WIND WELLINGTON_PRES DS824_LAT DS824_LON DS824_STAGE DS824_WIND DS824_PRES TD9636_LAT TD9636_LON TD9636_STAGE TD9636_WIND TD9636_PRES TD9635_LAT TD9635_LON TD9635_WIND TD9635_PRES TD9635_ROCI NEUMANN_LAT NEUMANN_LON NEUMANN_CLASS NEUMANN_WIND NEUMANN_PRES MLC_LAT MLC_LON MLC_CLASS MLC_WIND MLC_PRES USA_GUST BOM_GUST BOM_GUST_PER REUNION_GUST REUNION_GUST_PER USA_SEAHGT USA_SEARAD_NE USA_SEARAD_SE USA_SEARAD_SW USA_SEARAD_NW STORM_SPEED STORM_DIR
1898315N15123 1898 59 WP MM NOT_NAMED 1898-11-10 16:00:00 NR 14.9000 123.400 main 95 95 __________O___ -1 14.9000 123.400 3 1 275
1898315N15123 1898 59 WP MM NOT_NAMED 1898-11-10 18:00:00 NR 14.9037 123.351 main 95 89 __________P___ -1 14.9037 123.351 3 2 276
1898315N15123 1898 59 WP MM NOT_NAMED 1898-11-10 21:00:00 NR 14.9141 123.270 main 89 84 __________P___ -1 14.9141 123.270 3 2 281
1898315N15123 1898 59 WP MM NOT_NAMED 1898-11-11 00:00:00 NR 14.9370 123.173 main 84 81 __________P___ -1 14.9370 123.173 3 2 287
1898315N15123 1898 59 WP MM NOT_NAMED 1898-11-11 03:00:00 NR 14.9799 123.049 main 90 90 __________P___ -1 14.9799 123.049 3 3 290
1898315N15123 1898 59 WP MM NOT_NAMED 1898-11-11 04:00:00 NR 15.0000 123.000 main 90 89 __________O___ -1 15.0000 123.000 4 3 295
1898315N15123 1898 59 WP MM NOT_NAMED 1898-11-11 06:00:00 NR 15.0496 122.890 main 89 100 __________P___ -1 15.0496 122.890 4 4 296
1898315N15123 1898 59 WP MM NOT_NAMED 1898-11-11 09:00:00 NR 15.1428 122.699 main 100 94 __________P___ -1 15.1428 122.699 4 4 297
1898315N15123 1898 59 WP MM NOT_NAMED 1898-11-11 12:00:00 NR 15.2504 122.488 main 94 74 __________P___ -1 15.2504 122.488 4 5 298
1898315N15123 1898 59 WP MM NOT_NAMED 1898-11-11 15:00:00 NR 15.3630 122.272 main 74 70 __________P___ -1 15.3630 122.272 4 5 298
1898315N15123 1898 59 WP MM NOT_NAMED 1898-11-11 16:00:00 NR 15.4000 122.200 main 70 56 __________O___ -1 15.4000 122.200 4 5 295
1898315N15123 1898 59 WP MM NOT_NAMED 1898-11-11 18:00:00 NR 15.4588 122.056 main 56 30 __________P___ -1 15.4588 122.056 4 5 293
1898315N15123 1898 59 WP MM NOT_NAMED 1898-11-11 21:00:00 NR 15.5469 121.840 main 30 10 __________P___ -1 15.5469 121.840 4 4 294
1898315N15123 1898 59 WP MM NOT_NAMED 1898-11-12 00:00:00 NR 15.6430 121.635 main 10 0 __________P___ -1 15.6430 121.635 4 4 299
1898315N15123 1898 59 WP MM NOT_NAMED 1898-11-12 03:00:00 NR 15.7566 121.453 main 0 0 __________P___ -1 15.7566 121.453 4 4 305
1898315N15123 1898 59 WP MM NOT_NAMED 1898-11-12 04:00:00 NR 15.8000 121.400 main 0 0 __________O___ -1 15.8000 121.400 4 4 316
1898315N15123 1898 59 WP MM NOT_NAMED 1898-11-12 06:00:00 NR 15.8995 121.310 main 0 0 __________P___ -1 15.8995 121.310 4 4 325
1898315N15123 1898 59 WP MM NOT_NAMED 1898-11-12 09:00:00 NR 16.0676 121.201 main 0 0 __________P___ -1 16.0676 121.201 4 4 331
1898315N15123 1898 59 WP MM NOT_NAMED 1898-11-12 12:00:00 NR 16.2503 121.112 main 0 0 __________P___ -1 16.2503 121.112 4 4 335
1898315N15123 1898 59 WP MM NOT_NAMED 1898-11-12 15:00:00 NR 16.4379 121.028 main 0 0 __________P___ -1 16.4379 121.028 4 4 337
1898315N15123 1898 59 WP MM NOT_NAMED 1898-11-12 16:00:00 NR 16.5000 121.000 main 0 0 __________O___ -1 16.5000 121.000 4 4 329
1898315N15123 1898 59 WP MM NOT_NAMED 1898-11-12 18:00:00 NR 16.6036 120.928 main 0 0 __________P___ -1 16.6036 120.928 4 4 326
1898315N15123 1898 59 WP MM NOT_NAMED 1898-11-12 21:00:00 NR 16.7586 120.820 main 0 0 __________P___ -1 16.7586 120.820 4 4 328
1898315N15123 1898 59 WP MM NOT_NAMED 1898-11-13 00:00:00 NR 16.9272 120.717 main 0 0 __________P___ -1 16.9272 120.717 4 4 333
1898315N15123 1898 59 WP MM NOT_NAMED 1898-11-13 03:00:00 NR 17.1249 120.627 main 0 0 __________P___ -1 17.1249 120.627 4 4 337
1898315N15123 1898 59 WP MM NOT_NAMED 1898-11-13 04:00:00 NR 17.2000 120.600 main 0 0 __________O___ -1 17.2000 120.600 4 5 344
1898315N15123 1898 59 WP MM NOT_NAMED 1898-11-13 06:00:00 NR 17.3688 120.550 main 0 0 __________P___ -1 17.3688 120.550 4 6 347
1898315N15123 1898 59 WP MM NOT_NAMED 1898-11-13 09:00:00 NR 17.6535 120.488 main 0 0 __________P___ -1 17.6535 120.488 4 6 350
1898315N15123 1898 59 WP MM NOT_NAMED 1898-11-13 12:00:00 NR 17.9649 120.440 main 10 10 __________P___ -1 17.9649 120.440 4 6 353
1898315N15123 1898 59 WP MM NOT_NAMED 1898-11-13 15:00:00 NR 18.2905 120.408 main 21 21 __________P___ -1 18.2905 120.408 4 7 355
1898315N15123 1898 59 WP MM NOT_NAMED 1898-11-13 16:00:00 NR 18.4000 120.400 main 21 21 __________O___ -1 18.4000 120.400 4 7 0
1898315N15123 1898 59 WP MM NOT_NAMED 1898-11-13 18:00:00 NR 18.6267 120.388 main 30 30 __________P___ -1 18.6267 120.388 4 7 0
1898315N15123 1898 59 WP MM NOT_NAMED 1898-11-13 21:00:00 NR 18.9734 120.384 main 61 61 __________P___ -1 18.9734 120.384 4 7 0
1898315N15123 1898 59 WP MM NOT_NAMED 1898-11-14 00:00:00 NR 19.3086 120.389 main 88 88 __________P___ -1 19.3086 120.389 4 6 0
1898315N15123 1898 59 WP MM NOT_NAMED 1898-11-14 03:00:00 NR 19.6105 120.398 main 119 119 __________P___ -1 19.6105 120.398 4 6 2
1898315N15123 1898 59 WP MM NOT_NAMED 1898-11-14 04:00:00 NR 19.7000 120.400 main 130 130 __________O___ -1 19.7000 120.400 4 5 0
1898315N15123 1898 59 WP MM NOT_NAMED 1898-11-14 06:00:00 NR 19.8483 120.395 main 140 151 __________P___ -1 19.8483 120.395 4 4 357
1898315N15123 1898 59 WP MM NOT_NAMED 1898-11-14 09:00:00 NR 20.0328 120.387 main 162 162 __________P___ -1 20.0328 120.387 4 3 0
1898315N15123 1898 59 WP MM NOT_NAMED 1898-11-14 12:00:00 NR 20.1913 120.384 main 183 181 __________P___ -1 20.1913 120.384 4 3 5
1898315N15123 1898 59 WP MM NOT_NAMED 1898-11-14 15:00:00 NR 20.3457 120.393 main 181 170 __________P___ -1 20.3457 120.393 4 3 5
1898315N15123 1898 59 WP MM NOT_NAMED 1898-11-14 16:00:00 NR 20.4000 120.400 main 170 159 __________O___ -1 20.4000 120.400 4 4 0
1898315N15123 1898 59 WP MM NOT_NAMED 1898-11-14 18:00:00 NR 20.5276 120.422 main 159 135 __________P___ -1 20.5276 120.422 4 4 13
1898315N15123 1898 59 WP MM NOT_NAMED 1898-11-14 21:00:00 NR 20.7254 120.467 main 135 113 __________P___ -1 20.7254 120.467 4 4 13
1898315N15123 1898 59 WP MM NOT_NAMED 1898-11-15 00:00:00 NR 20.9279 120.522 main 113 90 __________P___ -1 20.9279 120.522 4 4 15
1898315N15123 1898 59 WP MM NOT_NAMED 1898-11-15 03:00:00 NR 21.1321 120.581 main 90 78 __________P___ -1 21.1321 120.581 4 4 13
1898315N15123 1898 59 WP MM NOT_NAMED 1898-11-15 04:00:00 NR 21.2000 120.600 main 78 67 __________O___ -1 21.2000 120.600 4 4 13
1898315N15123 1898 59 WP MM NOT_NAMED 1898-11-15 06:00:00 NR 21.3359 120.623 main 67 44 __________P___ -1 21.3359 120.623 4 4 10
1898315N15123 1898 59 WP MM NOT_NAMED 1898-11-15 09:00:00 NR 21.5399 120.657 main 44 22 __________P___ -1 21.5399 120.657 4 4 10
1898315N15123 1898 59 WP MM NOT_NAMED 1898-11-15 12:00:00 NR 21.7411 120.702 main 22 0 __________P___ -1 21.7411 120.702 4 4 15
1898315N15123 1898 59 WP MM NOT_NAMED 1898-11-15 15:00:00 NR 21.9366 120.770 main 0 0 __________P___ -1 21.9366 120.770 4 4 19
1898315N15123 1898 59 WP MM NOT_NAMED 1898-11-15 16:00:00 NR 22.0000 120.800 main 0 0 __________O___ -1 22.0000 120.800 4 4 28
1898315N15123 1898 59 WP MM NOT_NAMED 1898-11-15 18:00:00 NR 22.0933 120.854 main 0 0 __________P___ -1 22.0933 120.854 4 3 33
1898315N15123 1898 59 WP MM NOT_NAMED 1898-11-15 21:00:00 NR 22.2264 120.960 main 10 10 __________P___ -1 22.2264 120.960 4 4 39
1898315N15123 1898 59 WP MM NOT_NAMED 1898-11-16 00:00:00 NR 22.3847 121.109 main 20 20 __________P___ -1 22.3847 121.109 4 5 41
1898315N15123 1898 59 WP MM NOT_NAMED 1898-11-16 03:00:00 NR 22.6058 121.316 main 30 30 __________P___ -1 22.6058 121.316 4 6 41
1898315N15123 1898 59 WP MM NOT_NAMED 1898-11-16 04:00:00 NR 22.7000 121.400 main 30 23 __________O___ -1 22.7000 121.400 4 9 37
1898315N15123 1898 59 WP MM NOT_NAMED 1898-11-16 06:00:00 NR 22.9479 121.595 main 30 23 __________P___ -1 22.9479 121.595 4 10 36
1898315N15123 1898 59 WP MM NOT_NAMED 1898-11-16 09:00:00 NR 23.3892 121.945 main 51 55 __________P___ -1 23.3892 121.945 4 12 37
1898315N15123 1898 59 WP MM NOT_NAMED 1898-11-16 12:00:00 NR 23.8721 122.342 main 74 75 __________P___ -1 23.8721 122.342 4 12 38
1898315N15123 1898 59 WP MM NOT_NAMED 1898-11-16 15:00:00 NR 24.3499 122.760 main 93 91 __________P___ -1 24.3499 122.760 4 12 39
1898315N15123 1898 59 WP MM NOT_NAMED 1898-11-16 16:00:00 NR 24.5000 122.900 main 101 101 __________O___ -1 24.5000 122.900 4 11 41
1898315N15123 1898 59 WP MM NOT_NAMED 1898-11-16 18:00:00 NR 24.7792 123.175 main 122 122 __________P___ -1 24.7792 123.175 4 11 43
1898315N15123 1898 59 WP MM NOT_NAMED 1898-11-16 21:00:00 NR 25.1529 123.579 main 162 162 __________P___ -1 25.1529 123.579 4 10 46
1898315N15123 1898 59 WP MM NOT_NAMED 1898-11-17 00:00:00 NR 25.4871 123.976 main 208 208 __________P___ -1 25.4871 123.976 4 10 48
1898315N15123 1898 59 WP MM NOT_NAMED 1898-11-17 03:00:00 NR 25.7985 124.369 main 256 256 __________P___ -1 25.7985 124.369 4 9 49
1898315N15123 1898 59 WP MM NOT_NAMED 1898-11-17 04:00:00 NR 25.9000 124.500 main 270 __________O___ -1 25.9000 124.500 4 9 50

Digital Typhoon Data and Search

About IBTrACS Database

This database is a web-friendly format of International Best Track Archive for Climate Stewardship (IBTrACS), a global best track data archive curated by NOAA dating back to 1842.

Updated: 2021-11-26